Date,TemperatureHighF,TemperatureAvgF,TemperatureLowF,DewpointHighF,DewpointAvgF,DewpointLowF,HumidityHigh,HumidityAvg,HumidityLow,PressureMaxIn,PressureMinIn,WindSpeedMaxMPH,WindSpeedAvgMPH,GustSpeedMaxMPH,PrecipitationSumIn
2013-1-8,45.1,38.8,12.7,28.5,26.6,6.3,75,61,47,30.62,29.96,7,2,12,0.15
2013-1-9,43.0,37.1,28.0,26.5,22.7,16.7,66,56,49,30.71,30.21,14,5,21,0.00
2013-1-10,43.0,39.2,35.8,30.7,28.9,27.1,81,67,56,30.51,30.24,8,3,12,0.06
2013-1-11,50.5,46.0,41.4,45.6,42.5,37.9,91,88,80,29.90,29.69,9,2,16,0.00
2013-1-12,50.2,38.1,24.6,44.6,29.2,15.1,84,70,57,30.14,29.71,13,4,22,0.00
2013-1-13,24.8,18.5,12.7,17.8,7.3,-0.3,75,61,53,30.48,30.08,14,5,21,32.02
2013-1-14,26.6,15.4,8.4,6.7,1.7,-2.9,67,54,39,30.76,30.48,11,3,15,0.00
2013-1-15,36.5,25.3,10.2,16.4,10.0,1.5,74,53,35,30.73,30.30,8,1,11,0.00
2013-1-16,34.0,30.9,23.5,25.7,20.0,6.7,77,64,48,30.33,29.94,14,4,21,0.00
2013-1-17,27.5,20.2,12.6,11.8,1.7,-5.3,64,45,27,30.67,30.22,11,4,17,0.00
2013-1-18,43.9,29.0,10.4,29.7,17.3,1.0,71,62,49,30.71,29.91,11,2,18,0.00
2013-1-19,43.7,36.1,16.5,32.7,23.7,-2.2,73,61,28,30.10,29.72,23,6,34,0.00
2013-1-20,16.3,11.9,7.9,-2.0,-7.6,-9.3,45,39,32,30.53,30.10,13,4,19,0.00
2013-1-21,9.7,2.9,-3.8,-7.4,-15.5,-20.2,49,38,31,30.62,30.31,16,7,24,0.00
2013-1-22,9.1,0.2,-7.8,-11.1,-15.9,-22.6,47,42,32,30.76,30.46,13,4,16,0.00
2013-1-23,19.2,11.0,-1.5,7.8,-2.2,-15.1,70,54,42,30.70,30.10,11,3,22,0.00
2013-1-24,18.0,9.9,-1.1,2.7,-6.6,-14.6,53,45,35,30.99,30.43,6,2,12,0.00
2013-1-25,23.7,19.3,14.7,12.2,7.4,-0.6,66,59,43,30.63,30.29,9,3,13,0.00
2013-1-26,29.7,22.3,16.3,8.9,4.6,-0.5,58,46,31,30.60,30.39,5,1,8,0.00
2013-1-27,32.7,28.5,23.0,29.0,20.8,8.2,86,74,52,30.62,29.99,8,2,14,0.00
2013-1-28,43.0,35.8,30.7,32.6,29.3,25.3,86,78,65,30.10,29.89,7,1,9,0.00
2013-1-29,59.0,52.0,41.4,56.6,49.7,39.5,94,92,86,29.74,29.59,5,2,11,1.52
2013-1-30,28.8,22.4,15.6,24.5,16.3,6.8,84,77,67,29.80,29.48,0,0,0,34.16
2013-1-31,18.1,10.7,5.4,1.2,-2.9,-6.9,65,53,42,30.31,29.94,0,0,97,29.95
2013-2-1,10.2,4.7,1.2,-2.5,-8.9,-14.9,65,51,31,30.60,30.44,0,0,0,0.00
2013-2-2,18.0,7.9,-1.8,-0.5,-4.9,-12.4,66,54,35,30.48,30.30,0,0,0,0.00
2013-2-3,17.8,14.5,9.1,3.9,0.3,-4.1,65,53,44,30.36,30.24,0,0,0,0.00
2013-2-4,21.0,12.7,3.6,8.5,1.1,-8.7,72,59,43,30.37,29.92,0,0,0,0.00
2013-2-5,27.0,17.7,-2.6,18.8,8.6,-11.1,76,66,58,30.31,30.02,0,0,0,0.00
2013-2-6,44.1,22.9,-2.0,25.5,10.7,-10.9,75,60,32,30.54,30.23,4,1,11,0.09
2013-2-7,36.5,31.9,21.2,30.4,26.5,16.3,87,80,74,30.29,29.96,3,0,6,0.06
2013-2-8,27.0,18.4,2.7,16.4,10.5,-4.9,82,71,62,30.77,30.26,0,0,0,0.00
2013-2-9,32.0,17.7,0.7,21.4,9.5,-8.2,76,69,63,30.80,30.33,0,0,0,0.00
2013-2-10,43.5,33.8,16.9,41.4,29.5,10.1,93,84,74,30.40,29.53,9,2,18,0.48
2013-2-11,39.6,31.2,26.1,33.0,22.9,15.9,79,71,62,30.12,29.55,17,8,30,0.02
2013-2-12,33.4,23.5,18.9,18.0,13.8,11.1,79,66,50,30.30,29.91,11,4,17,0.00
2013-2-13,47.8,31.6,18.7,28.1,21.9,13.0,85,69,44,29.97,29.61,8,1,13,0.00
2013-2-14,35.2,32.9,27.7,30.6,25.5,18.1,84,74,64,30.16,29.74,17,4,21,0.05
2013-2-15,31.5,21.1,11.8,21.6,4.8,-2.5,78,50,33,30.47,30.16,9,4,14,0.00
2013-2-16,22.3,11.2,0.0,0.1,-5.9,-12.4,58,45,27,30.59,30.18,11,3,17,0.00
2013-2-17,35.6,17.1,-2.4,12.4,-1.9,-11.6,68,45,22,30.59,30.19,6,1,10,0.00
2013-2-18,52.7,36.2,24.3,38.2,24.7,7.9,90,64,44,30.23,29.55,9,2,17,0.32
2013-2-19,28.8,14.0,6.4,25.4,4.2,-6.0,87,64,52,30.51,29.65,0,0,0,0.00
2013-2-20,25.3,12.5,3.9,5.5,-1.3,-7.2,67,53,37,30.79,30.45,0,0,0,0.00
2013-2-21,25.9,19.3,7.5,19.4,10.5,-2.0,76,68,59,30.85,30.37,6,1,12,0.00
2013-2-22,35.2,27.8,23.9,28.8,22.0,17.1,85,79,72,30.39,29.97,5,2,12,0.00
2013-2-23,33.6,25.6,17.8,19.9,15.7,8.4,76,66,53,30.23,29.96,8,2,13,0.04
2013-2-24,50.9,27.1,15.8,23.8,14.5,7.8,77,61,32,30.47,30.14,5,2,8,0.11
2013-2-25,51.4,29.9,11.5,33.3,16.9,4.8,78,61,32,30.54,29.99,4,1,6,0.00
2013-2-26,34.5,32.2,28.0,28.4,24.9,21.4,87,75,60,30.22,29.66,14,5,22,0.00
2013-2-27,35.2,31.4,27.9,29.7,27.0,6.0,88,84,77,30.34,29.75,9,2,14,35.43
2013-2-28,35.4,30.6,24.1,27.7,22.7,14.4,85,73,62,30.33,29.96,9,2,16,0.02
2013-3-1,25.5,23.4,19.2,14.9,13.3,6.3,69,65,57,30.57,30.32,9,3,14,0.00
2013-3-2,33.1,18.7,3.0,12.6,5.0,-5.0,68,55,38,30.59,30.19,8,2,12,0.00
2013-3-3,41.0,15.2,-3.5,12.9,-3.3,-12.4,67,46,23,30.61,30.17,8,1,11,0.02
2013-3-4,42.3,23.1,1.0,21.7,11.1,-8.9,73,60,41,30.61,30.02,8,2,12,0.00
2013-3-5,31.8,28.9,25.0,26.0,21.6,18.4,83,74,63,30.29,29.89,9,3,19,14.32
2013-3-6,40.1,30.0,25.5,25.8,20.8,11.5,78,68,42,30.46,30.26,10,3,14,0.07
2013-3-7,49.5,28.8,13.6,19.4,13.2,5.7,75,54,26,30.66,30.28,5,2,8,0.00
2013-3-8,53.1,30.1,10.0,26.6,17.4,1.6,79,61,33,30.79,30.36,4,1,8,0.00
2013-3-9,44.4,35.7,28.8,31.9,26.7,19.9,83,70,56,30.55,29.82,6,2,10,0.16
2013-3-10,44.8,39.6,35.4,41.8,36.4,30.7,92,88,82,30.00,29.61,8,2,12,0.91
2013-3-11,38.1,34.0,30.6,36.0,30.3,25.4,92,86,81,29.84,29.51,10,2,14,0.07
2013-3-12,38.3,30.1,26.1,24.9,19.2,13.4,79,64,43,30.19,29.88,11,4,17,0.00
2013-3-13,34.5,25.7,18.5,15.4,7.0,1.0,68,46,26,30.58,30.06,12,5,18,0.02
2013-3-14,42.8,33.8,21.9,24.5,19.6,4.2,85,58,29,30.57,30.05,6,2,9,0.00
2013-3-15,40.5,32.1,26.8,30.7,25.1,21.7,82,76,65,30.21,30.07,4,2,8,0.01
2013-3-16,37.2,30.4,26.6,18.5,15.2,11.8,57,53,45,30.33,29.99,9,4,14,0.00
2013-3-17,34.9,29.3,25.5,15.0,13.0,11.4,57,50,40,30.48,30.18,6,3,12,0.00
2013-3-18,39.2,31.5,17.6,31.3,23.5,4.0,83,72,54,29.91,29.51,7,1,10,0.18
2013-3-19,21.7,19.5,16.2,5.6,4.3,0.9,59,51,44,30.26,29.83,13,4,17,0.00
2013-3-20,23.9,17.0,11.3,1.9,-2.4,-7.2,47,41,32,30.30,29.95,14,6,20,0.00
2013-3-21,35.4,18.9,7.5,11.6,1.4,-6.6,57,46,34,30.39,29.98,11,4,17,0.00
2013-3-22,41.7,24.2,9.1,13.7,6.3,-2.5,66,48,27,30.39,29.97,8,2,10,0.00
2013-3-23,53.2,30.5,14.0,20.6,14.2,6.4,77,55,24,30.39,30.03,7,1,9,0.00
2013-3-24,39.2,32.1,29.1,28.1,22.1,17.3,78,66,58,30.28,29.91,12,4,19,0.05
2013-3-25,37.8,31.1,27.0,24.8,19.8,14.3,70,63,51,30.26,29.93,11,3,20,0.00
2013-3-26,32.0,31.7,31.5,21.8,21.4,20.9,66,65,63,30.32,30.24,4,1,6,0.00
2013-3-27,49.8,38.2,25.5,24.1,18.1,12.9,63,45,28,30.51,30.15,9,3,15,0.00
2013-3-28,52.2,35.6,21.9,23.3,16.9,12.2,73,49,27,30.61,30.23,9,2,12,0.00
2013-3-29,55.6,37.3,20.8,30.7,18.2,13.9,80,50,24,30.61,30.22,7,1,10,0.00
2013-3-30,59.4,42.8,25.7,39.8,27.6,13.6,85,56,35,30.46,29.87,9,1,16,0.01
2013-3-31,52.2,42.9,37.2,40.1,36.7,31.9,88,80,59,29.90,29.66,9,4,16,0.00
2013-5-19,72.3,70.4,55.0,63.6,60.4,39.6,75,71,56,30.04,29.44,5,2,10,0.90
2013-5-20,89.6,76.3,64.6,65.2,61.9,57.0,90,64,37,29.61,29.46,11,2,17,0.04
2013-5-21,84.6,70.9,58.6,67.1,61.8,57.3,98,75,44,29.64,29.42,9,2,21,0.05
2013-5-22,72.0,61.1,54.7,67.2,59.9,53.8,99,96,82,29.71,29.39,4,1,8,0.66
2013-5-23,64.6,50.6,39.2,54.2,45.9,36.7,99,85,49,30.49,29.71,10,2,15,0.11
2013-5-24,70.3,50.6,34.7,45.0,37.1,31.2,97,63,33,30.62,30.35,4,1,10,0.00
2013-5-25,66.0,53.6,41.5,43.7,37.4,32.1,78,56,35,30.54,30.36,4,1,8,46.38
2013-5-26,72.1,55.2,40.5,47.9,41.8,35.9,85,63,35,30.48,30.15,5,1,11,0.00
2013-5-27,54.9,52.3,50.4,53.5,49.2,41.2,99,90,66,30.22,29.88,8,2,15,0.12
2013-5-28,76.5,62.9,50.4,69.7,60.5,50.1,99,92,78,29.94,29.55,4,1,9,0.79
2013-5-29,89.1,70.4,62.6,69.3,66.7,61.7,99,90,50,29.87,29.63,4,2,9,0.04
2013-5-30,85.8,77.1,63.1,71.7,68.4,62.3,99,76,61,29.82,29.55,10,3,22,0.32
2013-5-31,68.4,66.2,61.7,66.2,63.9,61.1,99,92,88,29.79,29.71,7,2,12,0.09
2013-6-1,67.6,61.2,41.3,64.6,56.8,31.5,97,79,38,29.79,29.55,4,1,8,48.09
2013-6-2,61.7,59.6,57.7,58.2,52.1,45.2,90,77,61,30.00,29.58,9,5,13,0.00
2013-6-3,58.8,58.8,58.8,46.3,46.3,46.3,63,63,63,29.92,29.92,2,2,3,0.00
2013-6-20,77.7,71.8,68.5,60.8,58.9,56.9,68,64,55,30.03,29.81,0,0,0,0.00
2013-6-21,79.5,71.1,65.5,70.1,65.7,56.8,99,83,67,30.11,29.79,4,0,12,0.84
2013-6-22,84.0,72.9,65.7,73.6,68.7,64.8,99,87,68,30.06,29.80,4,0,8,0.33
2013-6-23,92.5,77.4,63.5,76.5,69.0,62.6,99,77,55,29.95,29.73,5,0,14,0.02
2013-6-24,87.3,74.3,67.3,72.0,68.7,66.4,99,84,56,29.95,29.64,5,0,9,0.11
2013-6-25,97.2,73.6,65.3,75.5,68.1,10.0,99,87,4,29.88,29.63,8,0,38,4.61
2013-6-26,85.8,73.5,66.9,72.7,68.8,66.3,99,86,61,29.78,29.65,0,0,0,0.40
2013-6-27,90.0,75.5,64.8,73.9,68.4,61.9,99,81,51,29.75,29.55,6,0,9,0.02
2013-6-28,82.4,70.8,63.1,65.5,63.3,60.6,99,79,53,29.69,29.46,9,1,14,0.37
2013-6-29,79.3,67.2,63.1,64.1,60.5,56.2,97,81,49,29.80,29.53,6,0,12,0.21
2013-6-30,83.5,70.1,59.4,61.8,53.4,45.0,77,57,32,29.96,29.69,6,1,13,0.00
2013-7-1,84.6,69.0,54.1,57.4,51.9,45.7,89,57,31,30.10,29.92,4,0,9,5.78
2013-7-2,81.0,65.1,53.8,58.0,51.5,46.8,94,64,37,30.16,29.92,4,0,9,0.00
2013-7-3,74.3,64.8,59.2,64.6,60.0,52.5,95,85,64,30.08,29.96,0,0,1,0.14
2013-7-4,90.1,74.8,59.7,67.2,62.2,57.9,98,70,35,30.09,29.87,0,0,0,5.92
2013-7-5,92.1,76.5,62.6,69.4,63.4,58.8,90,66,42,30.05,29.86,4,0,8,0.00
2013-7-6,93.2,77.3,61.9,68.6,64.1,58.8,95,68,38,30.05,29.82,4,0,7,0.00
2013-7-7,95.0,79.0,66.9,74.5,69.7,64.8,96,75,49,29.98,29.78,4,0,9,0.00
2013-7-8,92.1,78.9,71.2,76.5,71.9,68.7,97,80,57,29.94,29.80,4,0,9,0.15
2013-7-9,89.8,75.9,68.2,77.8,71.2,66.7,95,86,64,29.95,29.69,2,0,10,0.14
2013-7-10,82.4,74.3,60.4,73.5,62.6,-99.9,97,72,1,29.94,29.72,0,0,2,6.32
2013-7-11,88.7,70.0,54.9,66.5,57.4,52.1,98,68,36,30.09,29.88,0,0,0,0.00
2013-7-12,92.3,71.6,52.7,65.7,56.1,35.1,98,65,21,30.17,29.82,0,0,0,0.14
2013-7-13,88.3,75.5,61.2,65.0,60.2,54.8,90,62,39,30.08,29.89,0,0,0,0.04
2013-7-14,90.5,80.1,61.9,72.0,66.8,59.8,96,67,50,30.17,30.00,0,0,0,0.00
2013-7-15,96.1,77.0,68.0,75.8,71.1,66.1,96,83,49,30.21,30.01,0,0,0,0.13
2013-7-16,99.1,85.0,72.1,77.9,74.2,55.7,95,72,47,30.20,30.05,0,0,114,6.63
2013-7-17,97.7,95.3,92.1,77.9,75.5,72.7,58,53,47,30.08,30.04,0,0,0,0.00
2013-7-18,98.8,89.2,72.0,77.6,73.1,70.1,96,62,45,30.14,29.79,6,1,14,0.02
2013-7-19,94.8,83.6,73.0,75.7,71.4,62.6,94,68,50,29.83,29.61,13,1,18,6.90
2013-7-20,92.8,73.4,61.0,67.7,62.6,57.4,93,71,42,29.91,29.66,8,0,11,0.06
2013-7-21,87.4,69.9,61.2,69.6,62.0,56.3,97,78,51,29.94,29.61,1,0,7,0.80
2013-7-22,91.4,82.1,63.7,72.9,68.9,62.6,97,66,48,29.71,29.42,0,0,1,0.16
2013-7-23,78.4,68.5,56.7,65.4,58.0,53.0,93,71,49,29.95,29.57,5,0,8,0.02
2013-7-24,83.1,71.2,55.0,58.1,53.7,50.2,86,56,38,30.03,29.68,2,0,5,0.01
2013-7-25,86.5,69.0,50.9,65.1,58.2,49.0,96,71,47,30.11,29.77,0,0,0,0.00
2013-7-26,73.9,65.1,57.9,70.1,62.8,57.1,97,92,82,29.88,29.68,2,0,11,0.53
2013-7-27,62.2,57.3,52.5,57.6,50.6,46.6,98,79,61,29.89,29.68,8,2,13,0.02
2013-7-28,72.0,59.6,51.8,56.4,52.0,49.5,95,77,54,29.90,29.80,8,3,14,0.03
2013-7-29,81.9,64.9,53.2,61.4,55.6,50.3,96,74,46,30.13,29.90,4,1,8,0.09
2013-7-30,82.2,67.4,58.1,64.4,60.6,56.1,95,81,52,30.15,29.86,4,1,9,0.28
2013-7-31,86.0,67.6,59.0,71.7,63.7,57.6,98,89,54,29.96,29.72,6,0,11,0.28
2013-8-1,82.0,68.0,57.4,65.1,57.8,54.4,98,74,41,29.90,29.63,8,2,12,0.01
2013-8-2,84.4,70.7,58.3,69.1,60.6,54.8,96,73,47,29.91,29.67,7,2,11,0.24
2013-8-3,82.2,68.3,52.3,66.1,54.7,50.8,96,66,40,30.15,29.85,8,1,13,0.00
2013-8-4,82.8,66.7,53.8,64.6,56.2,50.1,96,72,35,30.24,29.94,5,1,7,0.00
2013-8-5,80.6,66.2,58.6,65.9,59.2,53.8,91,79,57,30.03,29.65,4,1,11,0.00
2013-8-6,90.0,75.3,63.3,72.0,66.8,61.3,96,77,52,29.74,29.45,7,1,9,0.03
2013-8-7,87.1,75.3,62.8,73.4,66.5,59.8,95,76,50,29.92,29.43,8,2,12,0.10
2013-8-8,84.9,70.0,57.9,65.8,56.9,49.7,96,67,36,29.97,29.55,5,1,11,0.00
2013-8-9,81.9,65.1,54.0,67.1,56.4,48.3,93,75,53,29.99,29.58,7,1,9,0.12
2013-8-14,80.4,68.8,58.5,63.8,52.7,48.9,79,59,38,30.12,30.03,4,1,7,0.92
2013-8-15,85.8,73.6,56.8,60.4,55.3,47.9,91,57,32,30.05,29.63,5,1,10,0.00
2013-8-16,65.7,59.4,56.3,54.8,53.7,52.8,91,82,68,30.12,30.03,0,0,0,0.16
2013-8-17,89.1,82.9,75.9,61.2,58.8,55.3,55,44,36,29.96,29.70,4,1,6,0.00
2013-8-18,87.8,84.4,77.5,63.3,61.2,60.0,56,46,41,29.94,29.89,5,1,6,0.00
2013-8-19,89.4,76.9,63.0,66.7,62.7,59.8,90,64,44,29.95,29.60,8,1,11,0.00
2013-8-20,92.7,76.8,62.1,69.9,64.8,59.7,95,70,43,30.02,29.62,8,1,11,0.00
2013-8-21,93.6,80.0,68.2,71.8,67.3,62.8,89,67,46,29.96,29.70,7,2,14,0.09
2013-8-22,86.2,71.9,61.0,74.7,66.6,57.4,96,84,65,30.02,29.79,13,1,20,1.48
2013-8-23,87.6,70.6,56.1,68.3,59.0,54.1,97,71,38,30.17,29.92,4,0,9,0.18
2013-8-24,90.3,72.8,56.3,68.6,61.1,54.9,96,70,43,30.26,29.97,4,1,9,0.00
2013-8-25,93.9,79.6,68.0,72.3,64.5,56.6,81,62,43,30.14,29.81,9,2,15,0.04
2013-8-26,95.5,80.3,67.8,76.2,69.6,63.6,91,71,52,30.03,29.74,6,1,12,0.09
2013-8-27,83.8,82.2,80.6,73.1,72.4,72.1,76,72,69,29.79,29.68,3,0,5,0.00
2013-8-28,80.8,76.6,70.5,72.7,69.8,67.8,92,80,74,29.87,29.71,4,1,8,13.14
2013-8-29,78.6,78.6,78.6,69.6,69.6,69.6,74,74,74,29.86,29.86,2,2,3,0.00
2013-8-31,85.5,80.4,78.1,70.3,67.0,65.1,69,64,59,29.72,29.63,4,1,7,0.00
2013-9-2,80.6,65.5,53.8,68.2,54.1,48.6,85,67,52,29.93,29.78,6,1,9,14.34
2013-9-3,78.3,58.7,48.4,59.9,51.9,47.0,95,81,46,30.11,29.87,6,1,8,0.00
2013-9-4,86.2,73.7,54.0,65.1,60.9,51.2,93,67,45,30.03,29.78,7,2,12,0.00
2013-9-5,79.3,66.2,50.7,62.0,54.0,46.9,88,67,43,30.18,29.85,5,1,13,0.00
2013-9-6,88.9,68.4,50.4,67.8,58.8,46.6,94,74,45,30.26,29.78,4,1,8,0.14
2013-9-7,84.6,74.9,68.0,71.9,66.6,62.6,83,76,66,29.81,29.74,4,1,5,0.27
2013-9-8,75.9,69.6,66.2,65.2,62.4,59.8,85,78,65,29.96,29.85,4,1,10,0.00
2013-9-9,94.3,79.5,66.7,76.0,69.7,62.1,90,73,53,29.87,29.59,6,1,11,0.00
2013-9-10,97.5,83.7,71.8,70.6,66.0,61.9,75,57,39,29.82,29.65,9,2,16,0.00
2013-9-11,88.0,74.1,66.0,70.3,65.1,61.5,90,75,53,29.97,29.80,7,1,12,0.01
2013-9-12,82.6,70.1,56.7,71.0,56.8,45.1,87,64,43,30.06,29.60,9,2,15,0.00
2013-9-13,70.5,56.9,46.0,47.1,44.1,40.9,88,65,37,30.26,30.01,6,1,11,0.00
2013-9-14,79.5,59.7,41.7,67.6,47.1,40.7,96,67,38,30.33,29.91,6,1,10,14.90
2013-9-15,63.7,56.6,52.9,58.0,51.7,45.6,93,84,60,30.28,29.97,6,1,11,0.45
2013-9-16,71.8,54.4,42.3,51.9,45.0,38.8,93,73,44,30.52,30.27,5,2,10,0.12
2013-9-17,74.7,59.5,42.3,57.8,50.5,40.4,95,74,49,30.50,30.07,5,1,9,0.05
2013-9-18,82.4,69.2,58.6,66.9,61.9,54.5,88,78,59,30.07,29.77,5,1,10,0.20
2013-9-19,72.0,69.4,68.4,69.2,65.6,63.5,92,88,80,29.83,29.77,6,1,10,0.13